This is the latest recevied weather packets stored in our database for station/object KE4PKT-1. If no packets are shown the sender has not sent any weather packets the latest 10 day(s).
| Time | Temp. | Humidity | Pressure | Rain* | Wind** | Luminosity | Snow |
|---|---|---|---|---|---|---|---|
| 1777680957 | 11.67° C | 63% | 1014.8 hPa | 0 mm | - | - | - |
| 1777680481 | 12.22° C | 63% | 1014.8 hPa | 0 mm | - | - | - |
| 1777680236 | 12.22° C | 63% | 1014.7 hPa | 0 mm | - | - | - |
| 1777679996 | 12.22° C | 63% | 1014.7 hPa | 0 mm | - | - | - |
| 1777679756 | 12.22° C | 63% | 1014.5 hPa | 0 mm | - | - | - |
| 1777679525 | 12.22° C | 64% | 1014.4 hPa | 0 mm | - | - | - |
| 1777679397 | 12.22° C | 63% | 1014.4 hPa | 0 mm | - | - | - |
| 1777679329 | 12.22° C | 63% | 1014.4 hPa | 0 mm | - | - | - |
| 1777679120 | 12.22° C | 63% | 1014.4 hPa | 0 mm | - | - | - |
| 1777655190 | 13.89° C | 64% | 1013.7 hPa | 0 mm | - | - | - |
| 1777654710 | 13.89° C | 64% | 1013.7 hPa | 0 mm | - | - | - |
| 1777654650 | 13.89° C | 64% | 1013.7 hPa | 0 mm | - | - | - |
| 1777654329 | 13.89° C | 64% | 1013.7 hPa | 0 mm | - | - | - |
| 1777650489 | 15.56° C | 62% | 1013.2 hPa | 0 mm | - | - | - |
| 1777650009 | 15.56° C | 65% | 1013.2 hPa | 0 mm | - | - | - |
| 1777648329 | 15.56° C | 61% | 1013.1 hPa | 0 mm | - | - | - |
| 1777647945 | 15.56° C | 62% | 1013 hPa | 0 mm | - | - | - |
| 1777641142 | 11.11° C | 80% | 1013.4 hPa | 17.27 mm | - | - | - |
| 1777640905 | 10.56° C | 84% | 1013.5 hPa | 17.27 mm | - | - | - |
| 1777638872 | 6.67° C | 97% | 1013.7 hPa | 17.27 mm | - | - | - |
| 1777638753 | 6.67° C | 97% | 1013.7 hPa | 17.27 mm | - | - | - |
| 1777637972 | 5° C | 97% | 1013.9 hPa | 17.27 mm | - | - | - |
| 1777637913 | 5° C | 97% | 1013.9 hPa | 17.27 mm | - | - | - |
| 1777405202 | 24.44° C | 79% | 1013.2 hPa | 0 mm | - | - | - |
| 1777404962 | 24.44° C | 79% | 1013.2 hPa | 0 mm | - | - | - |
* Rain latest hour (hover to see other rain measurements)
** Current wind speed in m/s (hover to see current wind gust speed)